Time;durP1;ratioP1;P1;durP2;ratioP2;P2;SDS_P1;SDS_P2;PMS_P1;PMS_P2;Temp;Humidity;BMP_temperature;BMP_pressure;BME280_temperature;BME280_humidity;BME280_pressure;Samples;Min_cycle;Max_cycle;Signal;HPM_P1;HPM_P2
2022/07/24 00:01:07;;;;;;;9.38;6.72;;;;;;;25.36;46.23;99138.00;5090120;28;20012;-69
2022/07/24 00:03:32;;;;;;;9.88;6.57;;;;;;;25.36;46.31;99132.59;5090062;28;20035;-69
2022/07/24 00:05:58;;;;;;;8.18;6.65;;;;;;;25.36;46.52;99138.81;5090091;28;20032;-69
2022/07/24 00:08:23;;;;;;;12.63;6.55;;;;;;;25.35;46.35;99130.94;5089862;28;20024;-70
2022/07/24 00:10:49;;;;;;;8.30;5.93;;;;;;;25.35;46.31;99136.34;5090045;28;20201;-70
2022/07/24 00:13:14;;;;;;;12.32;6.97;;;;;;;25.34;46.27;99134.69;5089852;28;20032;-70
2022/07/24 00:15:40;;;;;;;9.10;6.80;;;;;;;25.32;46.20;99132.19;5089947;28;20020;-69
2022/07/24 00:18:05;;;;;;;10.63;6.82;;;;;;;25.34;46.15;99129.28;5089746;28;20054;-71
2022/07/24 00:20:31;;;;;;;8.23;6.63;;;;;;;25.32;46.30;99125.97;5089752;28;20023;-70
2022/07/24 00:22:56;;;;;;;11.52;7.57;;;;;;;25.31;46.45;99127.84;5088880;28;20110;-70
2022/07/24 00:25:22;;;;;;;9.60;7.10;;;;;;;25.31;46.36;99124.31;5089424;28;20044;-69
2022/07/24 00:27:47;;;;;;;12.98;7.07;;;;;;;25.31;46.57;99130.53;5089512;28;20026;-70
2022/07/24 00:30:13;;;;;;;14.02;6.97;;;;;;;25.30;46.66;99137.03;5089625;28;20131;-70
2022/07/24 00:32:38;;;;;;;14.60;7.60;;;;;;;25.29;46.34;99149.75;5089469;28;20109;-69
2022/07/24 00:35:04;;;;;;;12.40;7.93;;;;;;;25.26;46.46;99133.94;5089620;28;20208;-69
2022/07/24 00:37:30;;;;;;;10.40;6.50;;;;;;;25.28;46.61;99139.16;5085046;28;20021;-69
2022/07/24 00:39:55;;;;;;;9.95;6.85;;;;;;;25.27;46.53;99141.03;5069288;28;20031;-68
2022/07/24 00:42:21;;;;;;;11.35;6.50;;;;;;;25.27;46.37;99143.72;5069329;28;20104;-70
2022/07/24 00:44:46;;;;;;;10.77;6.97;;;;;;;25.27;46.55;99143.72;5069327;28;20024;-70
2022/07/24 00:47:12;;;;;;;12.93;8.10;;;;;;;25.28;46.56;99141.84;5069257;28;20029;-70
2022/07/24 00:49:37;;;;;;;9.68;7.00;;;;;;;25.27;46.42;99142.91;5084795;28;20020;-70
2022/07/24 00:52:03;;;;;;;8.75;6.53;;;;;;;25.26;46.66;99133.94;5089157;28;20089;-70
2022/07/24 00:54:29;;;;;;;7.78;6.38;;;;;;;25.26;46.62;99133.13;5089084;28;20020;-70
2022/07/24 00:56:54;;;;;;;9.82;6.75;;;;;;;25.24;46.68;99130.63;5089049;28;20036;-71
2022/07/24 00:59:20;;;;;;;13.15;7.05;;;;;;;25.23;46.29;99128.97;5088992;28;20043;-70
2022/07/24 01:01:47;;;;;;;9.27;6.45;;;;;;;25.23;46.53;99126.28;5088951;28;20108;-70
2022/07/24 01:04:13;;;;;;;11.48;7.50;;;;;;;25.24;46.52;99129.81;5089003;28;20020;-70
2022/07/24 01:06:43;;;;;;;12.48;7.20;;;;;;;25.22;46.54;99131.94;5088695;28;20039;-70
2022/07/24 01:09:09;;;;;;;11.90;7.47;;;;;;;25.23;46.38;99139.00;5088891;28;20051;-70
2022/07/24 01:11:36;;;;;;;9.13;6.57;;;;;;;25.23;46.54;99139.00;5088732;28;20028;-70
2022/07/24 01:14:01;;;;;;;9.13;7.28;;;;;;;25.22;46.46;99140.84;5088786;28;20047;-70
2022/07/24 01:16:27;;;;;;;7.97;6.53;;;;;;;25.22;46.46;99127.31;5088633;28;20237;-70
2022/07/24 01:18:52;;;;;;;9.35;6.93;;;;;;;25.20;46.57;99125.91;5088546;28;20035;-70
2022/07/24 01:21:18;;;;;;;12.45;7.05;;;;;;;25.22;46.59;99131.94;5088643;28;20044;-70
2022/07/24 01:23:43;;;;;;;7.05;6.35;;;;;;;25.23;46.75;99133.56;5088505;28;20031;-69
2022/07/24 01:26:09;;;;;;;7.85;6.68;;;;;;;25.21;46.77;99133.81;5088520;28;20035;-70
2022/07/24 01:28:35;;;;;;;7.88;6.53;;;;;;;25.21;46.42;99130.28;5088304;28;20039;-70
2022/07/24 01:31:00;;;;;;;8.80;6.82;;;;;;;25.21;46.64;99138.38;5088374;28;20064;-70
2022/07/24 01:33:26;;;;;;;8.70;6.35;;;;;;;25.22;46.50;99137.34;5088348;28;20036;-70
2022/07/24 01:35:52;;;;;;;10.25;6.45;;;;;;;25.20;46.58;99134.88;5088104;28;20095;-70
2022/07/24 01:38:18;;;;;;;9.48;6.00;;;;;;;25.22;46.54;99135.44;5088484;28;20040;-70
2022/07/24 01:40:44;;;;;;;12.90;7.15;;;;;;;25.20;46.59;99140.28;5088174;28;20036;-70
2022/07/24 01:43:10;;;;;;;13.90;6.50;;;;;;;25.20;46.64;99134.03;5088150;28;20184;-70
2022/07/24 01:45:35;;;;;;;12.48;6.63;;;;;;;25.20;46.63;99137.56;5088163;28;20021;-70
2022/07/24 01:48:01;;;;;;;12.98;7.40;;;;;;;25.20;46.51;99139.44;5087893;28;20092;-70
2022/07/24 01:50:26;;;;;;;9.18;6.85;;;;;;;25.18;46.66;99134.28;5088089;28;20028;-71
2022/07/24 01:52:55;;;;;;;12.00;6.57;;;;;;;25.19;46.73;99138.63;5087948;28;20032;-70
2022/07/24 01:55:21;;;;;;;9.48;6.05;;;;;;;25.20;46.55;99137.56;5087991;28;20024;-70
2022/07/24 01:57:48;;;;;;;9.98;6.82;;;;;;;25.20;46.72;99143.00;5087851;28;20079;-71
2022/07/24 02:00:15;;;;;;;10.90;5.75;;;;;;;25.20;46.41;99140.28;5087880;28;20021;-70
2022/07/24 02:02:42;;;;;;;10.88;6.22;;;;;;;25.21;46.44;99132.97;5087846;28;20032;-70
2022/07/24 02:05:08;;;;;;;8.18;6.05;;;;;;;25.22;46.59;99142.75;5087825;28;20094;-71
2022/07/24 02:07:34;;;;;;;10.88;5.70;;;;;;;25.21;46.39;99141.94;5087697;28;20129;-70
2022/07/24 02:10:00;;;;;;;10.93;6.20;;;;;;;25.21;46.38;99144.66;5088092;28;20217;-70
2022/07/24 02:12:26;;;;;;;9.10;6.43;;;;;;;25.24;46.57;99148.78;5087733;28;20024;-70
2022/07/24 02:14:51;;;;;;;7.65;5.35;;;;;;;25.22;46.49;99143.56;5087740;28;20141;-70
2022/07/24 02:17:17;;;;;;;10.73;6.22;;;;;;;25.23;46.43;99149.81;5073412;28;20043;-70
2022/07/24 02:19:43;;;;;;;7.60;5.88;;;;;;;25.23;46.18;99144.41;5067569;28;20088;-70
2022/07/24 02:22:08;;;;;;;10.43;5.75;;;;;;;25.24;46.22;99146.06;5067529;28;20245;-70
2022/07/24 02:24:34;;;;;;;9.88;5.50;;;;;;;25.24;46.54;99152.28;5067626;28;20032;-70
2022/07/24 02:26:59;;;;;;;10.13;5.78;;;;;;;25.25;46.51;99147.72;5067485;28;20028;-70
2022/07/24 02:29:25;;;;;;;7.93;5.82;;;;;;;25.25;46.27;99145.81;5067543;28;20009;-70
2022/07/24 02:31:50;;;;;;;7.80;6.10;;;;;;;25.26;46.54;99149.38;5078569;28;20020;-70
2022/07/24 02:34:16;;;;;;;9.60;6.20;;;;;;;25.26;46.36;99150.19;5087510;28;20096;-70
2022/07/24 02:36:41;;;;;;;11.15;5.53;;;;;;;25.26;46.43;99150.19;5087437;28;20009;-70
2022/07/24 02:39:06;;;;;;;7.25;5.50;;;;;;;25.27;46.53;99154.56;5087319;28;20031;-69
2022/07/24 02:41:32;;;;;;;8.95;5.90;;;;;;;25.27;46.38;99151.84;5087533;28;20035;-70
2022/07/24 02:43:57;;;;;;;7.45;5.63;;;;;;;25.28;46.15;99148.09;5087433;28;20070;-70
2022/07/24 02:46:23;;;;;;;8.30;5.70;;;;;;;25.29;46.46;99143.50;5087844;28;20031;-70
2022/07/24 02:48:48;;;;;;;8.23;5.55;;;;;;;25.28;46.30;99142.66;5091353;28;20057;-70
2022/07/24 02:51:14;;;;;;;9.25;4.90;;;;;;;25.30;46.42;99145.13;5091513;28;20035;-70
2022/07/24 02:53:40;;;;;;;10.95;5.25;;;;;;;25.30;46.41;99142.44;5091403;28;20031;-70
2022/07/24 02:56:05;;;;;;;7.82;5.57;;;;;;;25.30;46.47;99139.72;5091454;28;20233;-70
2022/07/24 02:58:31;;;;;;;5.72;4.53;;;;;;;25.31;46.18;99137.84;5091346;28;20047;-70
2022/07/24 03:00:56;;;;;;;6.82;4.18;;;;;;;25.29;46.37;99138.09;5091268;28;20020;-70
2022/07/24 03:03:22;;;;;;;6.75;4.70;;;;;;;25.30;46.24;99137.03;5091265;28;20021;-70
2022/07/24 03:05:48;;;;;;;6.65;4.60;;;;;;;25.31;46.11;99135.97;5091270;28;20021;-70
2022/07/24 03:08:13;;;;;;;9.15;5.15;;;;;;;25.31;46.28;99129.75;5091021;28;20040;-70
2022/07/24 03:10:39;;;;;;;9.98;4.50;;;;;;;25.32;46.32;99132.19;5091180;28;20039;-70
2022/07/24 03:13:08;;;;;;;5.88;3.83;;;;;;;25.32;46.33;99134.09;5091015;28;20032;-70
2022/07/24 03:15:34;;;;;;;6.90;4.63;;;;;;;25.33;46.14;99128.44;5073523;28;20177;-70
2022/07/24 03:17:59;;;;;;;6.38;4.03;;;;;;;25.35;46.15;99130.94;5090924;28;20054;-70
2022/07/24 03:20:28;;;;;;;8.50;3.83;;;;;;;25.37;46.06;99128.81;5090912;28;20024;-70
2022/07/24 03:22:55;;;;;;;7.03;3.97;;;;;;;25.40;45.84;99129.19;5090789;28;20035;-70
2022/07/24 03:25:21;;;;;;;7.28;4.38;;;;;;;25.47;45.90;99128.28;5090763;28;20056;-70
2022/07/24 03:27:47;;;;;;;9.68;4.60;;;;;;;25.53;45.98;99128.22;5090602;28;20162;-70
2022/07/24 03:30:14;;;;;;;5.97;3.60;;;;;;;25.61;45.88;99123.53;5090733;28;20066;-70
2022/07/24 03:32:39;;;;;;;6.35;4.38;;;;;;;25.65;45.78;99116.63;5090568;28;20050;-70
2022/07/24 03:35:05;;;;;;;9.32;4.32;;;;;;;25.63;45.58;99116.81;5090694;28;20020;-70
2022/07/24 03:37:31;;;;;;;6.18;4.10;;;;;;;25.64;45.74;99126.59;5090416;28;20013;-70
2022/07/24 03:39:57;;;;;;;4.35;3.47;;;;;;;25.66;45.74;99115.56;5090519;28;20023;-70
2022/07/24 03:42:23;;;;;;;6.38;4.53;;;;;;;25.69;45.83;99115.06;5090412;28;20221;-70
2022/07/24 03:44:48;;;;;;;4.03;3.60;;;;;;;25.69;45.65;99121.34;5090491;28;20031;-70
2022/07/24 03:47:14;;;;;;;6.38;3.88;;;;;;;25.72;45.64;99114.63;5090418;28;20122;-70
2022/07/24 03:49:39;;;;;;;6.30;4.28;;;;;;;25.74;45.42;99118.75;5090309;28;20012;-70
2022/07/24 03:52:05;;;;;;;6.93;3.30;;;;;;;25.76;45.37;99110.41;5090321;28;20034;-70
2022/07/24 03:54:30;;;;;;;5.88;3.30;;;;;;;25.78;45.48;99116.41;5090317;28;20031;-70
2022/07/24 03:56:56;;;;;;;6.50;3.38;;;;;;;25.79;45.42;99118.06;5090233;28;20073;-70
2022/07/24 03:59:22;;;;;;;6.03;3.53;;;;;;;25.79;45.44;99114.53;5090005;28;20025;-70
2022/07/24 04:01:47;;;;;;;6.50;3.40;;;;;;;25.79;45.40;99119.94;5090099;28;20034;-70
2022/07/24 04:04:12;;;;;;;5.22;3.33;;;;;;;25.80;45.07;99116.19;5090144;28;20192;-70
2022/07/24 04:06:40;;;;;;;8.18;3.10;;;;;;;25.82;45.28;99111.34;5089920;28;20249;-70
2022/07/24 04:09:06;;;;;;;6.20;3.50;;;;;;;25.81;45.26;99113.22;5090049;28;20020;-71
2022/07/24 04:11:32;;;;;;;5.60;3.20;;;;;;;25.80;45.22;99103.47;5090062;28;20016;-70
2022/07/24 04:13:58;;;;;;;7.90;3.63;;;;;;;25.81;45.44;99113.22;5089956;28;20187;-70
2022/07/24 04:16:23;;;;;;;5.03;3.00;;;;;;;25.82;45.05;99114.06;5089928;28;20020;-71
2022/07/24 04:18:49;;;;;;;9.88;3.42;;;;;;;25.81;45.14;99117.81;5089720;28;20040;-70
2022/07/24 04:21:15;;;;;;;6.70;3.72;;;;;;;25.81;45.27;99113.22;5089747;28;20020;-70
2022/07/24 04:23:40;;;;;;;4.60;3.20;;;;;;;25.81;45.33;99121.34;5090010;28;20036;-70
2022/07/24 04:26:06;;;;;;;6.32;3.58;;;;;;;25.87;45.30;99119.63;5089763;28;20048;-71
2022/07/24 04:28:32;;;;;;;4.57;3.50;;;;;;;25.92;45.06;99122.44;5070128;28;20039;-71
2022/07/24 04:30:57;;;;;;;4.60;3.35;;;;;;;25.98;45.14;99115.25;5073443;28;20013;-70
2022/07/24 04:33:23;;;;;;;8.25;3.33;;;;;;;26.04;45.14;99131.44;5089566;28;20047;-70
2022/07/24 04:35:48;;;;;;;8.20;3.38;;;;;;;26.13;44.79;99123.00;5089449;28;20038;-71
2022/07/24 04:38:14;;;;;;;4.65;3.03;;;;;;;26.28;44.44;99114.41;5089472;28;20036;-70
2022/07/24 04:40:40;;;;;;;3.90;2.97;;;;;;;26.53;44.10;99124.22;5089388;28;20032;-70
2022/07/24 04:43:06;;;;;;;4.95;3.30;;;;;;;26.76;43.49;99126.09;5089353;28;20040;-71
2022/07/24 04:45:31;;;;;;;5.85;2.95;;;;;;;26.97;42.97;99124.66;5089404;28;20036;-70
2022/07/24 04:47:57;;;;;;;5.28;3.13;;;;;;;27.16;42.93;99110.91;5089125;28;20287;-70
2022/07/24 04:50:22;;;;;;;6.22;3.13;;;;;;;27.33;42.43;99116.44;5089237;28;20012;-70
2022/07/24 04:52:48;;;;;;;4.20;2.70;;;;;;;27.48;42.08;99116.75;5088940;28;20016;-70
2022/07/24 04:55:13;;;;;;;4.65;3.38;;;;;;;27.69;41.45;99131.53;5089077;28;20043;-71
2022/07/24 04:57:39;;;;;;;4.22;2.92;;;;;;;27.85;41.14;99120.94;5088945;28;20021;-71
2022/07/24 05:00:09;;;;;;;7.85;2.90;;;;;;;28.01;40.87;99122.03;5089052;28;20055;-71
2022/07/24 05:02:34;;;;;;;7.60;3.20;;;;;;;28.14;40.92;99121.72;5088969;28;20131;-71
2022/07/24 05:05:00;;;;;;;7.07;3.30;;;;;;;28.28;40.38;99122.22;5089026;28;20020;-71
2022/07/24 05:07:25;;;;;;;9.25;3.03;;;;;;;28.27;40.67;99115.16;5088704;28;20212;-70
2022/07/24 05:09:51;;;;;;;7.32;3.13;;;;;;;28.35;40.61;99116.63;5088300;28;20024;-70
2022/07/24 05:12:16;;;;;;;6.63;3.33;;;;;;;28.44;40.61;99120.56;5088768;28;20032;-70
2022/07/24 05:14:42;;;;;;;4.32;2.97;;;;;;;28.55;39.96;99118.81;5088786;28;20126;-70
2022/07/24 05:17:07;;;;;;;8.30;2.88;;;;;;;28.67;40.00;99117.88;5075041;28;20021;-70
2022/07/24 05:19:33;;;;;;;5.38;2.92;;;;;;;28.76;39.94;99113.69;5068653;28;20013;-71
2022/07/24 05:21:58;;;;;;;3.92;2.80;;;;;;;28.83;39.63;99111.59;5068581;28;20024;-71
2022/07/24 05:24:24;;;;;;;6.03;2.65;;;;;;;28.90;39.49;99105.97;5068586;28;20289;-70
2022/07/24 05:26:51;;;;;;;5.65;3.15;;;;;;;28.99;39.27;99107.16;5068396;28;20021;-70
2022/07/24 05:29:17;;;;;;;2.65;2.42;;;;;;;29.04;39.04;99096.34;5068466;28;20071;-70
2022/07/24 05:31:42;;;;;;;5.63;2.33;;;;;;;29.07;39.05;99101.28;5078451;28;20024;-70
2022/07/24 05:34:08;;;;;;;3.97;2.53;;;;;;;29.09;38.36;99098.31;5088367;28;20083;-71
2022/07/24 05:36:34;;;;;;;5.00;2.67;;;;;;;29.09;38.50;99095.59;5088306;28;20024;-71
2022/07/24 05:38:59;;;;;;;5.20;2.70;;;;;;;29.09;38.65;99092.84;5088428;28;20047;-70
2022/07/24 05:41:24;;;;;;;6.45;2.42;;;;;;;29.10;38.30;99099.16;5088300;28;20131;-71
2022/07/24 05:43:50;;;;;;;4.85;2.92;;;;;;;29.13;38.20;99096.72;5088403;28;20022;-71
2022/07/24 05:46:15;;;;;;;5.70;2.80;;;;;;;29.11;38.07;99090.72;5088217;28;20275;-70
2022/07/24 05:48:41;;;;;;;3.58;2.80;;;;;;;29.06;38.70;99093.34;5088132;28;20135;-71
2022/07/24 05:51:06;;;;;;;3.47;3.00;;;;;;;29.03;38.30;99093.91;5088075;28;20323;-70
2022/07/24 05:53:32;;;;;;;3.90;2.28;;;;;;;28.99;38.40;99082.66;5088049;28;20138;-71
2022/07/24 05:55:57;;;;;;;5.35;2.60;;;;;;;28.99;38.79;99085.38;5088075;28;20091;-71
2022/07/24 05:58:23;;;;;;;6.97;2.63;;;;;;;28.97;38.19;99079.38;5087967;28;20160;-71
2022/07/24 06:00:48;;;;;;;5.20;2.63;;;;;;;28.91;38.39;99091.28;5087777;28;20040;-70
2022/07/24 06:03:14;;;;;;;6.47;2.47;;;;;;;28.86;38.77;99092.06;5087814;28;20089;-71
2022/07/24 06:05:39;;;;;;;3.25;1.80;;;;;;;28.82;38.62;99087.38;5087840;28;20225;-71
2022/07/24 06:08:05;;;;;;;4.55;2.20;;;;;;;28.73;38.83;99084.25;5087599;28;20089;-70
2022/07/24 06:10:31;;;;;;;3.13;2.35;;;;;;;28.69;38.44;99083.06;5087810;28;20073;-71
2022/07/24 06:12:57;;;;;;;5.22;2.13;;;;;;;28.65;38.92;99079.19;5087747;28;20027;-70
2022/07/24 06:15:23;;;;;;;5.13;2.70;;;;;;;28.61;38.77;99081.59;5087708;28;20138;-70
2022/07/24 06:17:49;;;;;;;3.75;2.33;;;;;;;28.53;38.73;99080.13;5087531;28;20020;-71
2022/07/24 06:20:16;;;;;;;3.03;1.80;;;;;;;28.40;39.50;99085.94;5087571;28;20039;-70
2022/07/24 06:22:44;;;;;;;5.70;2.13;;;;;;;28.25;39.40;99081.91;5086786;28;20122;-70
2022/07/24 06:25:09;;;;;;;3.55;2.42;;;;;;;28.03;39.71;99073.66;5087665;28;20069;-71
2022/07/24 06:27:46;;;;;;;4.57;3.03;;;;;;;27.84;40.42;99071.19;5087328;28;20234;-70
2022/07/24 06:30:17;;;;;;;4.25;3.47;;;;;;;27.72;40.45;99078.59;5087926;28;20069;-70
2022/07/24 06:32:43;;;;;;;3.63;3.25;;;;;;;27.59;40.59;99073.47;5087503;28;20020;-71
2022/07/24 06:35:09;;;;;;;3.97;2.75;;;;;;;27.61;40.40;99069.41;5087522;28;20021;-70
2022/07/24 06:37:35;;;;;;;4.60;3.03;;;;;;;27.62;40.41;99071.06;5087307;28;20089;-70
2022/07/24 06:40:01;;;;;;;3.55;2.95;;;;;;;27.59;40.72;99071.56;5087417;28;20016;-70
2022/07/24 06:42:26;;;;;;;4.00;2.88;;;;;;;27.53;40.62;99077.97;5087452;28;20172;-70
2022/07/24 06:44:52;;;;;;;2.85;2.22;;;;;;;27.46;40.42;99074.56;5087490;28;20028;-70
2022/07/24 06:47:17;;;;;;;3.70;2.33;;;;;;;27.40;40.59;99071.75;5087370;28;20027;-70
2022/07/24 06:49:42;;;;;;;7.18;2.38;;;;;;;27.35;40.51;99070.84;5087340;28;20012;-71
2022/07/24 06:52:08;;;;;;;2.50;2.05;;;;;;;27.33;40.60;99076.50;5087301;28;20074;-70
2022/07/24 06:54:33;;;;;;;6.65;2.08;;;;;;;27.29;40.70;99064.47;5087377;28;20036;-70
2022/07/24 06:56:59;;;;;;;4.00;2.17;;;;;;;27.28;40.62;99068.25;5087441;28;20028;-70
2022/07/24 06:59:24;;;;;;;2.72;2.35;;;;;;;27.29;40.66;99061.75;5087140;28;20119;-70
2022/07/24 07:01:50;;;;;;;4.47;2.38;;;;;;;27.30;40.85;99051.72;5087225;28;20237;-70
2022/07/24 07:04:15;;;;;;;5.72;2.47;;;;;;;27.39;40.33;99059.25;5087277;28;20036;-70
2022/07/24 07:06:41;;;;;;;3.80;2.33;;;;;;;27.38;40.50;99054.88;5087069;28;20256;-70
2022/07/24 07:09:06;;;;;;;3.92;2.38;;;;;;;27.37;40.32;99047.78;5087150;28;20066;-70
2022/07/24 07:11:31;;;;;;;4.60;1.95;;;;;;;27.38;40.32;99049.44;5087173;28;20024;-70
2022/07/24 07:13:57;;;;;;;4.35;2.50;;;;;;;27.34;40.47;99048.25;5087086;28;20221;-70
2022/07/24 07:16:22;;;;;;;3.05;2.13;;;;;;;27.30;40.67;99046.28;5086966;28;20105;-70
2022/07/24 07:18:49;;;;;;;2.35;1.85;;;;;;;27.25;40.44;99041.59;5087077;28;20024;-70
2022/07/24 07:21:14;;;;;;;3.90;2.10;;;;;;;27.23;40.32;99041.00;5087051;28;20020;-70
2022/07/24 07:23:40;;;;;;;2.55;1.90;;;;;;;27.21;40.76;99040.41;5087028;28;20245;-70
2022/07/24 07:26:05;;;;;;;3.88;2.00;;;;;;;27.18;40.58;99044.44;5086974;28;20168;-70
2022/07/24 07:28:31;;;;;;;2.95;1.90;;;;;;;27.18;40.98;99049.03;5067447;28;20052;-71
2022/07/24 07:30:56;;;;;;;5.55;2.53;;;;;;;27.17;40.78;99037.38;5070625;28;20021;-70
2022/07/24 07:33:22;;;;;;;3.58;2.50;;;;;;;27.19;40.73;99045.25;5088761;28;20031;-70
2022/07/24 07:35:47;;;;;;;2.28;2.05;;;;;;;27.17;40.64;99044.69;5090698;28;20043;-70
2022/07/24 07:38:13;;;;;;;3.47;1.90;;;;;;;27.18;40.61;99038.19;5090625;28;20046;-70
2022/07/24 07:40:38;;;;;;;4.03;2.17;;;;;;;27.17;40.54;99031.09;5090541;28;20016;-70
2022/07/24 07:43:04;;;;;;;4.10;2.08;;;;;;;27.16;40.68;99040.31;5090389;28;20237;-71
2022/07/24 07:45:29;;;;;;;2.30;1.75;;;;;;;27.15;40.86;99039.50;5090439;28;20028;-70
2022/07/24 07:47:55;;;;;;;4.28;2.35;;;;;;;27.15;40.98;99028.63;5090172;28;20244;-70
2022/07/24 07:50:20;;;;;;;4.75;2.47;;;;;;;27.13;40.96;99022.63;5090400;28;20016;-70
2022/07/24 07:52:45;;;;;;;3.30;2.38;;;;;;;27.14;40.72;99023.44;5090298;28;20145;-70
2022/07/24 07:55:11;;;;;;;3.97;1.80;;;;;;;27.13;40.58;99019.09;5090290;28;20031;-70
2022/07/24 07:57:37;;;;;;;2.60;2.30;;;;;;;27.11;40.55;99024.75;5090210;28;20288;-70
2022/07/24 08:00:03;;;;;;;2.20;1.75;;;;;;;27.10;40.81;99026.66;5090085;28;20222;-71
2022/07/24 08:02:29;;;;;;;2.75;2.00;;;;;;;27.10;40.73;99017.66;5090013;28;20230;-71
2022/07/24 08:04:55;;;;;;;3.95;2.20;;;;;;;27.10;40.50;99010.38;5090107;28;20032;-71
2022/07/24 08:07:20;;;;;;;4.85;2.13;;;;;;;27.21;40.26;99015.97;5089807;28;20213;-71
2022/07/24 08:09:46;;;;;;;3.28;2.20;;;;;;;27.24;40.10;99015.50;5090036;28;20035;-71
2022/07/24 08:12:11;;;;;;;3.38;2.38;;;;;;;27.22;40.17;99023.06;5089945;28;20035;-71
2022/07/24 08:14:37;;;;;;;1.95;1.70;;;;;;;27.19;40.14;99018.09;5089919;28;20034;-70
2022/07/24 08:17:03;;;;;;;3.55;2.08;;;;;;;27.17;40.19;99014.81;5089759;28;20039;-70
2022/07/24 08:19:28;;;;;;;4.63;2.28;;;;;;;27.19;40.21;99009.97;5089993;28;20020;-70
2022/07/24 08:21:54;;;;;;;2.30;2.10;;;;;;;27.21;40.17;99018.69;5089777;28;20145;-71
2022/07/24 08:24:23;;;;;;;2.78;2.42;;;;;;;27.24;40.22;99015.50;5090047;28;20024;-71
2022/07/24 08:26:49;;;;;;;2.80;2.15;;;;;;;27.22;39.92;99023.06;5089634;28;20056;-71
2022/07/24 08:29:16;;;;;;;2.58;2.30;;;;;;;27.19;40.41;99013.50;5089871;28;20195;-71
2022/07/24 08:31:42;;;;;;;2.65;2.10;;;;;;;27.17;40.12;99009.38;5079535;28;20088;-71
2022/07/24 08:34:07;;;;;;;4.75;2.20;;;;;;;27.17;40.04;99007.50;5069595;28;20075;-71
2022/07/24 08:36:33;;;;;;;7.65;2.47;;;;;;;27.18;40.16;99006.44;5069476;28;20045;-71
2022/07/24 08:38:58;;;;;;;2.80;2.10;;;;;;;27.16;39.91;98999.56;5086184;28;20102;-71
2022/07/24 08:41:24;;;;;;;5.45;1.95;;;;;;;27.20;39.83;98998.03;5089423;28;20237;-71
2022/07/24 08:43:49;;;;;;;2.40;2.20;;;;;;;27.19;40.16;98994.50;5088734;28;20180;-71
2022/07/24 08:46:16;;;;;;;2.42;2.20;;;;;;;27.19;39.99;98993.66;5088850;28;20017;-71
2022/07/24 08:48:45;;;;;;;2.80;2.08;;;;;;;27.18;40.10;98994.72;5089131;28;20133;-71
2022/07/24 08:51:14;;;;;;;2.47;2.08;;;;;;;27.16;40.08;98991.44;5089360;28;20043;-71
2022/07/24 08:53:40;;;;;;;2.47;2.25;;;;;;;27.11;40.08;98984.03;5089165;28;20229;-71
2022/07/24 08:56:06;;;;;;;3.67;2.22;;;;;;;27.13;40.12;98981.06;5089203;28;20020;-71
2022/07/24 08:58:40;;;;;;;3.67;1.77;;;;;;;27.14;40.14;98986.25;5089061;28;20161;-71
2022/07/24 09:01:06;;;;;;;2.70;2.22;;;;;;;27.11;40.18;98984.84;5089012;28;20020;-71
2022/07/24 09:03:40;;;;;;;4.07;1.98;;;;;;;27.10;40.28;98983.22;5088972;28;20095;-71
2022/07/24 09:06:08;;;;;;;2.42;2.00;;;;;;;27.09;40.34;98973.41;5088991;28;20054;-71
2022/07/24 09:08:33;;;;;;;2.72;2.15;;;;;;;27.09;40.36;98984.28;5067885;28;20040;-71
2022/07/24 09:11:03;;;;;;;6.38;2.20;;;;;;;27.09;40.51;98978.00;5068857;28;20029;-71
2022/07/24 09:14:29;;;;;;;2.50;2.08;;;;;;;27.07;40.52;98983.69;5068791;28;20066;-71
2022/07/24 09:16:24;;;;;;;1.92;1.73;;;;;;;27.09;40.43;98981.56;5068693;28;20024;-71
2022/07/24 09:19:02;;;;;;;3.08;2.20;;;;;;;27.07;40.39;98972.81;5068649;28;20024;-71
2022/07/24 09:21:31;;;;;;;2.95;2.63;;;;;;;27.07;40.59;98978.25;5068340;28;20134;-71
2022/07/24 09:24:02;;;;;;;3.30;1.95;;;;;;;27.06;40.45;98975.75;5068368;28;20036;-71
2022/07/24 09:26:42;;;;;;;;;;;;;;;27.01;40.55;98981.13;5069079;28;20028;-71
2022/07/24 09:29:11;;;;;;;2.17;1.85;;;;;;;27.01;40.47;98979.22;5068432;28;19897;-71
2022/07/24 09:31:56;;;;;;;2.50;1.95;;;;;;;27.05;40.31;98968.72;5067981;28;20226;-71
2022/07/24 09:34:22;;;;;;;3.10;2.03;;;;;;;27.05;40.45;98976.88;5068289;28;20020;-71
2022/07/24 09:37:02;;;;;;;5.38;2.25;;;;;;;27.06;40.52;98975.75;5068083;28;20315;-71
2022/07/24 09:39:31;;;;;;;2.30;2.05;;;;;;;27.01;40.68;98972.97;5048373;28;20211;-71
2022/07/24 09:41:58;;;;;;;2.75;2.22;;;;;;;27.05;40.66;98985.81;5048092;28;20029;-71
2022/07/24 09:44:25;;;;;;;2.67;2.08;;;;;;;27.06;40.33;98981.19;5048051;28;20067;-71
2022/07/24 09:47:02;;;;;;;3.63;2.40;;;;;;;27.06;40.42;98975.75;5048313;28;20021;-71
2022/07/24 09:49:29;;;;;;;5.22;2.70;;;;;;;27.08;40.65;98974.47;5062380;28;20023;-70
2022/07/24 09:52:11;;;;;;;2.47;2.28;;;;;;;27.10;40.31;98974.22;5067931;28;20024;-71
2022/07/24 09:54:41;;;;;;;2.40;1.98;;;;;;;27.09;40.26;98962.56;5067933;28;20118;-70
2022/07/24 09:57:26;;;;;;;;;;;;;;;27.04;40.33;98973.31;5068114;28;20027;-70
2022/07/24 10:00:00;;;;;;;2.22;2.03;;;;;;;27.06;40.10;98973.06;5067917;28;19896;-70
2022/07/24 10:02:31;;;;;;;3.30;2.55;;;;;;;27.10;40.21;98975.06;5067729;28;20309;-71
2022/07/24 10:04:59;;;;;;;5.00;2.72;;;;;;;27.11;40.61;98982.16;5067588;28;20021;-71
2022/07/24 10:07:26;;;;;;;3.17;2.22;;;;;;;27.14;40.29;98977.25;5075755;28;20111;-71
2022/07/24 10:09:54;;;;;;;2.70;2.10;;;;;;;27.16;40.20;98964.28;5088094;28;20012;-71
2022/07/24 10:12:26;;;;;;;2.17;1.92;;;;;;;27.18;40.12;98964.84;5087736;28;20264;-71
2022/07/24 10:14:54;;;;;;;4.00;1.67;;;;;;;27.18;40.03;98962.13;5087730;28;20044;-71
2022/07/24 10:17:22;;;;;;;3.90;1.90;;;;;;;27.17;40.64;98968.63;5087533;28;20085;-71
2022/07/24 10:19:50;;;;;;;7.22;1.95;;;;;;;27.16;40.35;98969.69;5087897;28;20149;-71
2022/07/24 10:22:16;;;;;;;3.25;1.85;;;;;;;27.15;40.51;98968.06;5087619;28;20038;-71
2022/07/24 10:25:09;;;;;;;2.40;1.73;;;;;;;27.10;40.50;98958.78;5087692;28;20175;-71
2022/07/24 10:27:36;;;;;;;3.83;2.08;;;;;;;27.13;40.41;98962.06;5078535;28;20028;-71
2022/07/24 10:30:09;;;;;;;4.28;2.00;;;;;;;27.12;40.50;98958.50;5067485;28;20027;-71
2022/07/24 10:32:36;;;;;;;2.17;1.90;;;;;;;27.11;40.63;98968.56;5067328;28;20039;-71
2022/07/24 10:35:02;;;;;;;2.85;1.88;;;;;;;27.11;40.34;98952.28;5067447;28;20021;-71
2022/07/24 10:37:36;;;;;;;5.22;2.50;;;;;;;27.13;40.38;98943.88;5067273;28;20045;-71
2022/07/24 10:40:25;;;;;;;3.08;2.20;;;;;;;27.16;40.61;98942.56;5067360;28;20021;-72
2022/07/24 10:43:08;;;;;;;2.55;2.20;;;;;;;27.14;40.17;98940.09;5067506;28;20139;-72
2022/07/24 10:45:43;;;;;;;2.90;2.13;;;;;;;27.15;40.41;98935.47;5067359;28;20024;-71
2022/07/24 10:48:21;;;;;;;2.25;1.90;;;;;;;27.15;40.49;98939.03;5070680;28;20024;-71
2022/07/24 10:51:00;;;;;;;4.80;2.15;;;;;;;27.15;40.46;98938.19;5087402;28;20027;-71
2022/07/24 10:53:28;;;;;;;4.72;2.10;;;;;;;27.15;40.36;98930.03;5087313;28;20032;-71
2022/07/24 10:56:16;;;;;;;2.80;2.30;;;;;;;27.14;40.46;98931.94;5087400;28;20028;-71
2022/07/24 10:59:07;;;;;;;5.72;2.63;;;;;;;27.13;40.42;98929.50;5087313;28;20020;-71
2022/07/24 11:01:38;;;;;;;4.18;2.33;;;;;;;27.13;40.50;98924.88;5087304;28;20016;-71
2022/07/24 11:04:22;;;;;;;3.67;2.17;;;;;;;27.14;40.55;98921.09;5087264;28;20172;-71
2022/07/24 11:06:53;;;;;;;3.42;2.50;;;;;;;27.15;40.61;98922.72;5087088;28;20052;-71
2022/07/24 11:09:20;;;;;;;;;;;;;;;27.09;40.55;98923.69;5091225;28;20021;-71
2022/07/24 11:11:51;;;;;;;3.97;2.50;;;;;;;27.11;40.60;98911.53;5091144;28;19950;-71
2022/07/24 11:14:24;;;;;;;4.30;2.50;;;;;;;27.15;40.63;98908.31;5091163;28;20016;-71
2022/07/24 11:16:50;;;;;;;5.43;2.58;;;;;;;27.15;40.73;98913.75;5081774;28;20017;-71
2022/07/24 11:19:16;;;;;;;3.53;2.53;;;;;;;27.16;40.48;98910.81;5070900;28;20032;-71
2022/07/24 11:21:44;;;;;;;4.90;2.75;;;;;;;27.16;40.50;98902.66;5070887;28;20261;-71
2022/07/24 11:24:23;;;;;;;4.18;2.70;;;;;;;27.18;40.51;98905.97;5070763;28;20028;-71
2022/07/24 11:26:53;;;;;;;3.47;2.40;;;;;;;27.17;40.37;98898.88;5070760;28;20032;-71
2022/07/24 11:29:24;;;;;;;2.92;2.58;;;;;;;27.17;40.41;98892.59;5070806;28;20090;-71
2022/07/24 11:31:59;;;;;;;5.50;2.60;;;;;;;27.19;40.30;98898.63;5070629;28;20045;-71
2022/07/24 11:34:26;;;;;;;4.65;2.42;;;;;;;27.17;40.60;98889.88;5070658;28;20104;-71